Startpagina
METAR-TAF:

METAR-TAF

Vliegvelden :

Luchthaven Katowice

Katowice, Polen

breedte: 50-28-27N, lengte: 019-04-48E, hoogte: 284 m

Actueel weer

Dit bericht is 23 minuten geleden gemaakt, om 13:00 UTC
Wind 7 kt uit variabele richting
Temperatuur 14°C
Vochtigheid 26%
Druk 1023 hPa
Zicht 10 km of meer
geen wolken onder 1500 m en geen cumulonimbus

METAR: EPKT 101300Z VRB07KT CAVOK 14/M05 Q1023

Tijdstip: 15:23 (13:23 UTC)

Verwachting

Dit bericht is 1 uur en het 53 minuten geleden gemaakt, om 11:30 UTC
Verwachting geldig van 10 om 12 UTC tot 11 om 12 UTC
Wind 5 kt uit het noordwesten
Zicht 10 km of meer
geen wolken onder 1500 m en geen cumulonimbus
Kans 30% :
Tijdelijke
van 11 om 01 UTC tot 11 om 05 UTC
Zicht: 4000 m
nevel

TAF: EPKT 101130Z 1012/1112 32005KT CAVOK PROB30 TEMPO 1101/1105 4000 BR

Waarnemingen en weersverwachtingen van meer dan 4000 vliegvelden (METAR en TAF).

De beschikbare stations zijn de gele en rode punten op de kaart.

Ga met uw muis naar het station om de naam te zien.

Klik dan om waarnemingen en weersverwachtingen te zien.

kaart wijzigen: klik op de groene knoppen met een zwart kruis om in te zoomen, op de groene knop met een streepje om uit te zoomen of op de groene pijlen voor aangrenzende kaarten.


METAR-TAF: